Tiempo atmosférico en la estación meteorológica de Almería Aeropuerto, Almería (21 m.)

Fecha
DESCASC
Temp. máxima en grados centígrados (hora)
DESCASC
Temp. mínima en grados centígrados (hora)
DESCASC
Temp. media en grados centígrados
DESCASC
Racha de viento máxima en m/sg (hora)
DESCASC
Velocidad máxima media en intervalos de 10 minutos(hora)
DESCASC
Precipitaciones diarias en mm
DESCASC
Precipitaciones de 00:00 a 06:00 en mm
DESCASC
Precipitaciones de 06:00 a 12:00 en mm
DESCASC
Precipitaciones de 12:00 a 18:00 en mm
DESCASC
Precipitaciones de 18:00 a 24:00 en mm
DESCASC
19-10-2017 22.2 (21:20) 16.2 (09:00) 19.2 15 (23:40) 10 (23:59) 5.2 1.2 4 0 0
18-10-2017 22.5 (10:40) 15.4 (12:00) 18.9 18.06 (19:10) 13.89 (11:50) 19.7 0 13 6.7 0
17-10-2017 25 (13:30) 17.7 (08:20) 21.4 7.78 (10:40) 4.44 (07:30) 0 0 0 0 0
16-10-2017 28.3 (14:30) 18 (08:40) 23.1 11.67 (12:00) 8.89 (11:30) 0 0 0 0 0
15-10-2017 31.1 (14:20) 19.6 (00:00) 25.4 12.5 (17:40) 9.72 (19:20) 0 0 0 0 0
14-10-2017 32.2 (15:20) 18.7 (00:00) 25.5 9.72 (21:30) 6.39 (17:40) 0 0 0 0 0
13-10-2017 29.6 (14:50) 18.4 (00:00) 24 6.11 (10:20) 3.89 (07:30) 0 0 0 0 0
12-10-2017 26.5 (12:20) 17.5 (00:00) 22 7.78 (09:20) 4.72 (14:00) 0 0 0 0 0
11-10-2017 26.8 (15:20) 17.9 (00:00) 22.3 6.11 (13:20) 4.72 (13:20) 0 0 0 0 0
10-10-2017 26 (14:30) 17.5 (00:00) 21.8 7.22 (09:20) 4.72 (14:20) 0 0 0 0 0
09-10-2017 25.6 (15:00) 17.9 (00:00) 21.8 5 (03:40) 3.89 (15:00) 0 0 0 0 0
08-10-2017 27.6 (12:40) 19.5 (00:00) 23.6 9.72 (08:40) 5.83 (09:10) 0 0 0 0 0
07-10-2017 29.2 (15:20) 18.5 (00:00) 23.9 13.89 (14:10) 9.17 (14:40) 0 0 0 0 0
06-10-2017 25.7 (13:50) 18.7 (00:00) 22.2 8.89 (15:20) 6.39 (14:50) 0 0 0 0 0
05-10-2017 29.8 (14:00) 19.5 (00:00) 24.6 10.83 (12:10) 7.78 (12:10) 0 0 0 0 0
04-10-2017 29.6 (15:30) 20.8 (00:00) 25.2 11.67 (12:30) 8.33 (18:00) 0 0 0 0 0
03-10-2017 27.1 (15:10) 20 (00:00) 23.6 8.33 (14:00) 5.83 (14:00) 0 0 0 0 0
02-10-2017 29.4 (14:00) 19.8 (00:00) 24.6 13.33 (15:00) 8.89 (16:00) 0 0 0 0 0
01-10-2017 26.6 (13:50) 19.7 (00:00) 23.2 6.67 (15:10) 4.72 (15:10) 0 0 0 0 0
30-09-2017 26.2 (14:30) 18.8 (00:00) 22.5 7.22 (09:10) 4.17 (08:50) 0 0 0 0 0
29-09-2017 28.8 (13:20) 19.4 (00:00) 24.1 10.83 (12:00) 6.11 (13:00) 0 0 0 0 0
28-09-2017 29.5 (15:00) 21.6 (00:00) 25.6 14.44 (18:00) 11.11 (18:20) 0 0 0 0 0
27-09-2017 30 (14:10) 21.4 (00:00) 25.7 11.39 (12:10) 8.33 (20:00) 0 0 0 0 0
26-09-2017 30.3 (14:40) 19 (00:00) 24.6 13.33 (12:20) 9.72 (11:40) 0 0 0 0 0
25-09-2017 25.1 (16:10) 17 (00:00) 21.1 10.28 (14:20) 7.78 (14:20) 0 0 0 0 0
24-09-2017 28 (11:40) 20 (00:00) 24 9.17 (10:00) 5.56 (15:40) 0 0 0 0 0
23-09-2017 29.9 (14:00) 19.9 (00:00) 24.9 11.67 (15:20) 8.33 (15:40) 0 0 0 0 0
22-09-2017 29.8 (14:40) 20.6 (00:00) 25.2 15 (18:10) 11.67 (18:40) 0 0 0 0 0
21-09-2017 30.7 (12:50) 19.4 (00:00) 25.1 9.17 (07:50) 6.67 (08:00) 0 0 0 0 0
20-09-2017 26.9 (11:30) 18.4 (00:00) 22.6 7.22 (13:30) 5.28 (13:40) 0 0 0 0 0

Gráficas

Temp. máximas Temp. mínimas Temp. medias Precipitaciones Rachas de viento máximas Velocidades máximas media en intervalos de 10 minutos

Datos horarios

Fecha y hora oficial Temperatura (ºC) Velocidad del viento (km/h) Dirección del viento Racha (km/h) Dirección de racha Precipitación (mm) Presión (hPa) Tendencia (hPa) Humedad (%)
2017-10-19 23:00:00 21.3 22 Noroeste 46 Noroeste 0 1011.9 1.5 41
2017-10-19 22:00:00 21.5 26 Noroeste 37 Noroeste 0 1011.9 2.6 42
2017-10-19 21:00:00 21.6 19 Noroeste 32 Noroeste 0 1011.3 2.3 42
2017-10-19 20:00:00 19.9 5 Norte 24 Sudoeste 0 1010.4 1.9 79
2017-10-19 19:00:00 21.2 17 Sudoeste 28 Sudoeste 0 1009.3 0.4 78
2017-10-19 18:00:00 21.4 21 Sudoeste 33 Sudoeste 0 1009 -0.1 74
2017-10-19 17:00:00 20.9 23 Sudoeste 33 Sudoeste 0 1008.5 -1 73
2017-10-19 16:00:00 20.9 23 Sudoeste 30 Sudoeste 0 1008.9 -1.2 75
2017-10-19 15:00:00 21.4 18 Sudoeste 24 Sudoeste 0 1009.1 -1.3 73
2017-10-19 14:00:00 21 14 Sur 21 Sur 0 1009.5 -0.7 73
2017-10-19 13:00:00 20.7 9 Sur 15 Sur 0 1010.1 0.8 72
2017-10-19 12:00:00 19.2 5 Este 21 Este 0 1010.4 1.7 79
2017-10-19 11:00:00 17.7 11 Este 17 Este 0 1010.2 0.9 88
2017-10-19 10:00:00 17 0 Calma 15 Nordeste 0 1009.3 0.2 89
2017-10-19 09:00:00 16.3 9 Nordeste 24 Oeste 1.2 1008.7 0.4 93
2017-10-19 08:00:00 17.5 12 Oeste 22 Oeste 2.4 1009.3 0.5 91
2017-10-19 07:00:00 17.6 14 Oeste 24 Sudoeste 0.4 1009.1 0.1 88
2017-10-19 06:00:00 18.1 14 Sudoeste 30 Oeste 0.5 1008.3 -0.7 90
2017-10-19 05:00:00 18.2 22 Oeste 39 Oeste 0.6 1008.8 -0.6 88
2017-10-19 04:00:00 19 25 Oeste 37 Oeste 0 1009 -1.1 84
2017-10-19 03:00:00 19.1 26 Sudoeste 37 Sudoeste 0.1 1009 -1.7 88
2017-10-19 02:00:00 19.1 22 Sudoeste 46 Oeste 0 1009.4 -1.6 85
2017-10-19 01:00:00 19.3 35 Oeste 50 Oeste 0 1010.1 -0.6 85
2017-10-19 00:00:00 19.4 28 Oeste 42 Oeste 0 1010.7 0 83
2017-10-18 23:00:00 19.3 32 Oeste 54 Oeste 0 1011 0.7 83
2017-10-18 22:00:00 19.5 32 Oeste 46 Oeste 0 1010.7 0.9 78
2017-10-18 21:00:00 19.2 22 Oeste 54 Sudoeste 0 1010.7 1.4 82
2017-10-18 20:00:00 19.6 43 Sudoeste 65 Sudoeste 0 1010.3 0.4 81
2017-10-18 19:00:00 20.3 44 Sudoeste 61 Sudoeste 0 1009.8 -1.1 75
2017-10-18 18:00:00 20.9 31 Sudoeste 63 Sudoeste 0 1009.3 -2 74
2017-10-18 17:00:00 20.5 40 Sudoeste 58 Sudoeste 0 1009.9 -2 78
2017-10-18 16:00:00 20 25 Sudoeste 35 Sudoeste 0.1 1010.9 -2.6 82
2017-10-18 15:00:00 20.1 14 Sudoeste 18 Sudoeste 0 1011.3 -1.8 78
2017-10-18 14:00:00 19.7 2 Noroeste 11 Norte 2.3 1011.9 -0.4 78
2017-10-18 13:00:00 17.7 5 Sudoeste 39 Noroeste 4.3 1013.5 0.8 88
2017-10-18 12:00:00 16.2 35 Noroeste 63 Noroeste 12.9 1013.1 0.6 91
2017-10-18 11:00:00 22.2 0 Calma 5 Sudoeste 0.1 1012.3 -0.2 79
2017-10-18 10:00:00 21.3 4 Norte 21 Norte 0 1012.7 -0.4 77
2017-10-18 09:00:00 19.4 6 Norte 8 Norte 0 1012.5 -0.7 80
2017-10-18 08:00:00 18.6 0 Calma 15 Nordeste 0 1012.5 -1.3 82
2017-10-18 07:00:00 18.6 4 Nordeste 5 Nordeste 0 1013.1 -1.5 83
2017-10-18 06:00:00 19.2 2 Este 13 Norte 0 1013.2 -2.2 81
2017-10-18 05:00:00 20 10 Norte 21 Norte 0 1013.8 -2.6 78
2017-10-18 04:00:00 19.9 5 Norte 13 Norte 0 1014.6 -1.8 82
2017-10-18 03:00:00 20.1 9 Norte 13 Norte 0 1015.4 -1.5 79
2017-10-18 02:00:00 20.4 0 Calma 8 Norte 0 1016.4 -0.8 79
2017-10-18 01:00:00 20.5 6 Norte 11 Norte 0 1016.4 -1 77
2017-10-18 00:00:00 20.9 5 Norte 8 Norte 0 1016.9 -0.1 78
2017-10-17 23:00:00 21.2 2 Norte 5 Norte 0 1017.2 -0.4 80
2017-10-17 22:00:00 21.6 0 Calma 4 Oeste 0 1017.4 -0.1 79
2017-10-17 21:00:00 21.7 0 Calma 9 Nordeste 0 1017 -0.5 78
2017-10-17 20:00:00 21.7 2 Sudoeste 9 Sudeste 0 1017.6 -0.5 79
2017-10-17 19:00:00 22.5 2 Sur 8 Sudoeste 0 1017.5 -0.9 75
2017-10-17 18:00:00 22.9 4 Sur 8 Sur 0 1017.5 -1.7 71
2017-10-17 17:00:00 22.8 4 Sur 13 Sur 0 1018.1 -1.9 71
2017-10-17 16:00:00 23.5 7 Sur 17 Sudoeste 0 1018.4 -2.4 66
2017-10-17 15:00:00 23.5 6 Sudoeste 18 Sudoeste 0 1019.2 -2.1 65
2017-10-17 14:00:00 23.9 12 Sur 18 Sudoeste 0 1020 -1.4 63
2017-10-17 13:00:00 24.7 12 Sudoeste 17 Sur 0 1020.8 -0.4 58
2017-10-17 12:00:00 24 7 Sur 17 Sur 0 1021.3 0.4 58
2017-10-17 11:00:00 23 4 Norte 28 Norte 0 1021.4 0.9 60
2017-10-17 10:00:00 20.7 15 Noroeste 22 Norte 0 1021.2 0.7 67
2017-10-17 09:00:00 18.5 14 Norte 21 Norte 0 1020.9 0.5 75
2017-10-17 08:00:00 18.7 13 Norte 24 Noroeste 0 1020.5 0 75
2017-10-17 07:00:00 18.6 13 Norte 18 Norte 0 1020.5 -0.5 76
2017-10-17 06:00:00 18.3 8 Noroeste 17 Norte 0 1020.4 -1.2 78
2017-10-17 05:00:00 18.6 9 Norte 18 Noroeste 0 1020.5 -1.3 78
2017-10-17 04:00:00 19.4 13 Noroeste 21 Noroeste 0 1021 -1.4 76
2017-10-17 03:00:00 19.4 11 Norte 17 Norte 0 1021.6 -0.7 77
2017-10-17 02:00:00 19.4 6 Norte 13 Norte 0 1021.8 -0.3 76
2017-10-17 01:00:00 20.1 6 Norte 11 Norte 0 1022.4 0.6 74
2017-10-17 00:00:00 20.9 5 Este 15 Nordeste 0 1022.3 0.9 71
2017-10-16 23:00:00 20.2 7 Nordeste 17 Este 0 1022.1 0.8 74
2017-10-16 22:00:00 21.6 14 Este 21 Este 0 1021.8 1 68
2017-10-16 21:00:00 22.1 17 Este 26 Este 0 1021.4 1.1 70
2017-10-16 20:00:00 23 15 Este 30 Este 0 1021.3 1.1 65
2017-10-16 19:00:00 24.6 24 Este 33 Este 0 1020.8 0.5 58
2017-10-16 18:00:00 26.2 25 Este 37 Este 0 1020.3 -0.4 51
2017-10-16 17:00:00 27.5 25 Este 41 Este 0 1020.2 -1.4 47
2017-10-16 16:00:00 27.9 27 Este 39 Este 0 1020.3 -1.9 45
2017-10-16 15:00:00 27.9 29 Este 41 Este 0 1020.7 -1.8 45
2017-10-16 14:00:00 27.9 26 Este 42 Este 0 1021.6 -1.1 41
2017-10-16 13:00:00 27 30 Este 42 Este 0 1022.2 -0.4 45
2017-10-16 12:00:00 26.1 30 Nordeste 42 Este 0 1022.5 0.6 48
2017-10-16 11:00:00 24.4 16 Nordeste 37 Nordeste 0 1022.7 1.6 49
2017-10-16 10:00:00 21 9 Noroeste 18 Norte 0 1022.6 2 59
2017-10-16 09:00:00 19.3 7 Norte 18 Noroeste 0 1021.9 1.4 66
2017-10-16 08:00:00 18.6 12 Nordeste 30 Norte 0 1021.1 0.4 70
2017-10-16 07:00:00 20.2 18 Noroeste 30 Noroeste 0 1020.6 -0.5 67
2017-10-16 06:00:00 20.3 21 Noroeste 33 Noroeste 0 1020.5 -0.9 67
2017-10-16 05:00:00 20.2 17 Noroeste 26 Noroeste 0 1020.7 -0.9 69
2017-10-16 04:00:00 20.6 9 Norte 17 Norte 0 1021.1 -0.5 72
2017-10-16 03:00:00 20 8 Nordeste 15 Este 0 1021.4 -0.2 77
2017-10-16 02:00:00 21.3 9 Este 21 Este 0 1021.6 0.1 74
2017-10-16 01:00:00 21.7 3 Sur 9 Oeste 0 1021.6 0.3 70
2017-10-16 00:00:00 22.5 4 Norte 26 Nordeste 0 1021.6 0.7 67
2017-10-15 23:00:00 22.6 10 Nordeste 35 Nordeste 0 1021.5 1 69
2017-10-15 22:00:00 22.6 16 Nordeste 39 Este 0 1021.3 1.2 71
2017-10-15 21:00:00 22.6 26 Este 39 Este 0 1020.9 0.9 75
2017-10-15 20:00:00 23.3 28 Este 45 Este 0 1020.5 0.6 73
2017-10-15 19:00:00 25.4 32 Este 45 Este 0 1020.1 -0.1 62
2017-10-15 18:00:00 27.7 30 Este 45 Este 0 1020 -0.9 48
2017-10-15 17:00:00 30 28 Este 42 Este 0 1019.9 -1.7 28
2017-10-15 16:00:00 30.6 29 Este 41 Este 0 1020.2 -2 30
2017-10-15 15:00:00 30.3 30 Este 41 Este 0 1020.9 -1.7 33
2017-10-15 14:00:00 30.5 28 Nordeste 39 Este 0 1021.6 -1.3 32
2017-10-15 13:00:00 30.4 27 Este 37 Este 0 1022.2 -0.6 30
2017-10-15 12:00:00 28.8 7 Noroeste 18 Norte 0 1022.6 0.1 35
2017-10-15 11:00:00 25.9 14 Norte 28 Noroeste 0 1022.9 0.8 45
2017-10-15 10:00:00 22.3 16 Norte 32 Noroeste 0 1022.8 0.8 54
2017-10-15 09:00:00 20.1 18 Norte 28 Norte 0 1022.5 0.8 63
2017-10-15 08:00:00 19.7 18 Norte 28 Noroeste 0 1022.1 0.7 66
2017-10-15 07:00:00 20 17 Norte 32 Noroeste 0 1022 0.5 69
2017-10-15 06:00:00 20.1 14 Norte 24 Norte 0 1021.7 -0.2 71
2017-10-15 05:00:00 20.9 17 Norte 32 Noroeste 0 1021.4 -0.7 71
2017-10-15 04:00:00 21.3 22 Noroeste 32 Noroeste 0 1021.5 -0.8 73
2017-10-15 03:00:00 20.8 14 Norte 21 Noroeste 0 1021.9 0 79
2017-10-15 02:00:00 21.1 4 Norte 13 Este 0 1022.1 0.3 76
2017-10-15 01:00:00 21.3 5 Nordeste 15 Nordeste 0 1022.3 0.8 68
2017-10-15 00:00:00 22.5 6 Norte 17 Nordeste 0 1021.9 0.6 68
2017-10-14 23:00:00 23 11 Nordeste 22 Nordeste 0 1021.8 1 63
2017-10-14 22:00:00 23.2 15 Este 35 Nordeste 0 1021.5 1 72
2017-10-14 21:00:00 23.4 21 Nordeste 32 Norte 0 1021.3 1.1 76
2017-10-14 20:00:00 24.1 22 Nordeste 32 Este 0 1020.8 0.6 74
2017-10-14 19:00:00 25.9 21 Este 32 Este 0 1020.5 0.1 59
2017-10-14 18:00:00 28 22 Este 32 Este 0 1020.2 -0.4 48
2017-10-14 17:00:00 29.6 20 Este 32 Este 0 1020.2 -1 44
2017-10-14 16:00:00 30.7 18 Este 30 Este 0 1020.4 -1.4 34
2017-10-14 15:00:00 31.9 21 Este 32 Este 0 1020.6 -1.6 30
2017-10-14 14:00:00 31.7 18 Este 30 Este 0 1021.2 -0.9 21
2017-10-14 13:00:00 31.5 22 Este 28 Este 0 1021.8 0.3 20
2017-10-14 12:00:00 30.5 20 Este 30 Este 0 1022.2 1.1 21
2017-10-14 11:00:00 28 9 Nordeste 32 Noroeste 0 1022.1 1.4 29
2017-10-14 10:00:00 24.5 10 Noroeste 24 Norte 0 1021.5 0.9 27
2017-10-14 09:00:00 21.4 10 Norte 22 Norte 0 1021.1 0.4 29
2017-10-14 08:00:00 19.7 9 Norte 13 Noroeste 0 1020.7 0 34
2017-10-14 07:00:00 19.2 2 Nordeste 18 Noroeste 0 1020.6 -0.5 36
2017-10-14 06:00:00 20.6 12 Norte 18 Noroeste 0 1020.7 -0.7 30
2017-10-14 05:00:00 18.8 8 Noroeste 15 Norte 0 1020.7 -0.9 41
2017-10-14 04:00:00 19 9 Noroeste 15 Norte 0 1021.1 -0.4 42
2017-10-14 03:00:00 20.7 3 Norte 8 Nordeste 0 1021.4 -0.2 29
2017-10-14 02:00:00 20.8 0 Calma 5 Norte 0 1021.6 0.2 31
2017-10-14 01:00:00 20.5 3 Nordeste 13 Norte 0 1021.5 0.3 33
2017-10-14 00:00:00 21.6 3 Norte 11 Norte 0 1021.6 0.8 35
2017-10-13 23:00:00 21.9 4 Norte 9 Norte 0 1021.4 0.5 38
2017-10-13 22:00:00 21.9 3 Norte 5 Norte 0 1021.2 0.6 56
2017-10-13 21:00:00 23.1 0 Calma 5 Este 0 1020.8 -0.1 59
2017-10-13 20:00:00 24.3 0 Calma 5 Oeste 0 1020.9 -0.2 72
2017-10-13 19:00:00 25.5 0 Calma 4 Oeste 0 1020.6 -0.9 70
2017-10-13 18:00:00 26.2 0 Calma 8 Sudoeste 0 1020.9 -1.1 65
2017-10-13 17:00:00 28.4 4 Sur 13 Sur 0 1021.1 -1.7 44
2017-10-13 16:00:00 28.4 8 Sur 15 Sudoeste 0 1021.5 -1.8 56
2017-10-13 15:00:00 29.4 7 Sur 13 Sur 0 1022 -1.3 42
2017-10-13 14:00:00 26.9 3 Sur 18 Sudoeste 0 1022.8 -0.5 60
2017-10-13 13:00:00 27.2 10 Sudoeste 15 Sudoeste 0 1023.3 0.4 47
2017-10-13 12:00:00 29.2 5 Sur 8 Sur 0 1023.3 0.7 26
2017-10-13 11:00:00 27.5 5 Sudeste 22 Norte 0 1023.3 0.8 33
2017-10-13 10:00:00 24 5 Norte 15 Norte 0 1022.9 0.6 31
2017-10-13 09:00:00 20.2 6 Norte 18 Norte 0 1022.6 0.3 38
2017-10-13 08:00:00 20.6 13 Norte 21 Noroeste 0 1022.5 0.4 36
2017-10-13 07:00:00 18.8 10 Noroeste 15 Noroeste 0 1022.3 -0.1 46
2017-10-13 06:00:00 19.7 3 Noroeste 11 Norte 0 1022.3 -0.4 43
2017-10-13 05:00:00 19.1 3 Norte 13 Norte 0 1022.1 -0.6 47
2017-10-13 04:00:00 19.3 4 Norte 13 Noroeste 0 1022.4 -0.6 54
2017-10-13 03:00:00 19.1 4 Norte 8 Norte 0 1022.7 -0.3 57
2017-10-13 02:00:00 18.8 4 Noroeste 13 Noroeste 0 1022.7 -0.2 63
2017-10-13 01:00:00 19.6 0 Calma 4 Noroeste 0 1023 0.2 59
2017-10-13 00:00:00 20.1 0 Calma 8 Sudeste 0 1023 0.4 58
2017-10-12 23:00:00 20.3 0 Calma 15 Norte 0 1022.9 0.5 60
2017-10-12 22:00:00 21 0 Calma 13 Nordeste 0 1022.8 0.9 70
2017-10-12 21:00:00 21.7 0 Calma 8 Noroeste 0 1022.6 0.7 78
2017-10-12 20:00:00 22.8 0 Calma 8 Sudoeste 0 1022.4 0.5 86
2017-10-12 19:00:00 23.9 3 Sur 11 Sudoeste 0 1021.9 -0.5 77
2017-10-12 18:00:00 25.5 7 Sur 15 Sur 0 1021.9 -1.4 66
2017-10-12 17:00:00 25.1 8 Sudeste 15 Sur 0 1021.9 -1.5 75
2017-10-12 16:00:00 25.3 9 Sur 18 Sur 0 1022.4 -1.2 76
2017-10-12 15:00:00 25.6 13 Sur 22 Sudoeste 0 1023.3 -0.1 74
2017-10-12 14:00:00 26 17 Sudoeste 21 Sudoeste 0 1023.4 0 72
2017-10-12 13:00:00 26.2 14 Sur 18 Sur 0 1023.6 0.3 66
2017-10-12 12:00:00 25.8 4 Sur 8 Sur 0 1023.4 0.5 61
2017-10-12 11:00:00 24.3 0 Calma 5 Sur 0 1023.4 1.1 67
2017-10-12 10:00:00 21.7 3 Nordeste 28 Noroeste 0 1023.3 1.4 75
2017-10-12 09:00:00 18.4 6 Noroeste 24 Norte 0 1022.9 1 89
2017-10-12 08:00:00 17.8 8 Noroeste 13 Noroeste 0 1022.3 0.8 87
2017-10-12 07:00:00 18.1 6 Norte 11 Norte 0 1021.9 0.8 83
2017-10-12 06:00:00 17.7 4 Noroeste 8 Norte 0 1021.9 0.4 87
2017-10-12 05:00:00 17.8 0 Calma 8 Norte 0 1021.5 -0.2 88
2017-10-12 04:00:00 18.4 3 Norte 11 Noroeste 0 1021.1 -0.9 88
2017-10-12 03:00:00 19.4 3 Norte 8 Nordeste 0 1021.5 -0.4 88
2017-10-12 02:00:00 19.7 2 Norte 5 Norte 0 1021.7 0.2 86
2017-10-12 01:00:00 19.6 0 Calma 8 Oeste 0 1022 1 83
2017-10-12 00:00:00 19.6 2 Noroeste 8 Norte 0 1021.9 1.5 82
2017-10-11 23:00:00 20.4 5 Norte 8 Norte 0 1021.5 1.5 80
2017-10-11 22:00:00 21.2 5 Norte 11 Norte 0 1021 1.6 85
2017-10-11 21:00:00 22.1 0 Calma 8 Oeste 0 1020.4 1 86
2017-10-11 20:00:00 23 5 Sudoeste 11 Sudoeste 0 1020 0.8 81
2017-10-11 19:00:00 24.6 4 Sur 15 Sur 0 1019.4 0.2 74
2017-10-11 18:00:00 25.5 9 Sur 17 Sur 0 1019.4 0 70
2017-10-11 17:00:00 26.2 12 Sur 18 Sur 0 1019.2 -0.9 65
2017-10-11 16:00:00 26.4 12 Sur 18 Sur 0 1019.2 -1.3 64
2017-10-11 15:00:00 26.3 11 Sur 17 Sudoeste 0 1019.4 -1.1 63
2017-10-11 14:00:00 25.9 12 Sur 22 Sur 0 1020.1 -0.3 67
2017-10-11 13:00:00 25.6 16 Sur 21 Sur 0 1020.5 0.5 68
2017-10-11 12:00:00 26.3 10 Sudeste 18 Sudeste 0 1020.5 1.2 59
2017-10-11 11:00:00 24.9 9 Este 17 Este 0 1020.4 1.5 65
2017-10-11 10:00:00 22 7 Noroeste 21 Noroeste 0 1020 1.2 68
2017-10-11 09:00:00 19.1 12 Norte 21 Noroeste 0 1019.3 0.5 81
2017-10-11 08:00:00 18 14 Noroeste 18 Norte 0 1018.9 0.4 85
2017-10-11 07:00:00 18.7 10 Norte 18 Noroeste 0 1018.8 0.1 84
2017-10-11 06:00:00 18.3 8 Noroeste 13 Noroeste 0 1018.8 -0.2 87
2017-10-11 05:00:00 19.1 7 Norte 15 Noroeste 0 1018.5 -0.6 85
2017-10-11 04:00:00 19.8 13 Norte 18 Norte 0 1018.7 -0.3 79
2017-10-11 03:00:00 20.3 13 Noroeste 17 Noroeste 0 1019 0.1 79
2017-10-11 02:00:00 19.8 6 Norte 13 Noroeste 0 1019.1 0.7 84
2017-10-11 01:00:00 20.9 7 Norte 13 Norte 0 1019 1.1 79
2017-10-11 00:00:00 21.3 8 Nordeste 18 Norte 0 1018.9 1.4 80
2017-10-10 23:00:00 21.4 9 Nordeste 26 Nordeste 0 1018.4 1.2 80
2017-10-10 22:00:00 21.4 10 Este 26 Nordeste 0 1017.9 0.9 81
2017-10-10 21:00:00 21.8 5 Norte 8 Norte 0 1017.5 0.6 84
2017-10-10 20:00:00 22.6 3 Sudoeste 13 Sudoeste 0 1017.2 0.2 83
2017-10-10 19:00:00 24.1 8 Sur 15 Sur 0 1017 0 78
2017-10-10 18:00:00 24.9 9 Sur 22 Sur 0 1016.9 -0.4 73
2017-10-10 17:00:00 25.4 13 Sur 21 Sur 0 1017 -1 71
2017-10-10 16:00:00 25.6 15 Sur 22 Sur 0 1017 -1.5 70
2017-10-10 15:00:00 25.6 16 Sur 22 Sur 0 1017.3 -1.2 69
2017-10-10 14:00:00 25.7 17 Sur 22 Sur 0 1018 -0.5 68
2017-10-10 13:00:00 25.3 14 Sur 21 Sur 0 1018.5 0.2 70
2017-10-10 12:00:00 24.9 13 Sur 17 Sur 0 1018.5 0.7 70
2017-10-10 11:00:00 24.5 8 Sur 15 Noroeste 0 1018.5 1.3 66
2017-10-10 10:00:00 21.3 11 Noroeste 26 Noroeste 0 1018.3 1.4 61
2017-10-10 09:00:00 19.1 14 Noroeste 24 Noroeste 0 1017.8 0.9 67
2017-10-10 08:00:00 18.3 16 Noroeste 24 Noroeste 0 1017.2 0.3 70
2017-10-10 07:00:00 17.6 11 Norte 15 Norte 0 1016.9 0.1 72
2017-10-10 06:00:00 18.1 8 Norte 21 Noroeste 0 1016.9 -0.2 63
2017-10-10 05:00:00 19.1 14 Noroeste 18 Noroeste 0 1016.9 -0.2 65
2017-10-10 04:00:00 19 13 Norte 17 Norte 0 1016.8 -0.5 68
2017-10-10 03:00:00 18.7 11 Norte 13 Norte 0 1017.1 -0.3 70
2017-10-10 02:00:00 19.5 7 Norte 11 Norte 0 1017.1 -0.2 60
2017-10-10 01:00:00 19.5 4 Norte 5 Norte 0 1017.3 0.3 64
2017-10-10 00:00:00 20 0 Calma 8 Norte 0 1017.4 0.7 67
2017-10-09 23:00:00 20.4 5 Norte 13 Norte 0 1017.3 1 75
2017-10-09 22:00:00 20.9 0 Calma 4 Norte 0 1017 0.9 80
2017-10-09 21:00:00 21.9 0 Calma -- -- 0 1016.7 0.7 79
2017-10-09 20:00:00 22.5 0 Calma 8 Sur 0 1016.3 0.1 75
2017-10-09 19:00:00 23.8 4 Sudoeste 13 Sur 0 1016.1 -0.2 72
2017-10-09 18:00:00 24.6 6 Sur 17 Sur 0 1016 -0.9 68
2017-10-09 17:00:00 25 11 Sur 17 Sur 0 1016.2 -1.3 67
2017-10-09 16:00:00 25.4 12 Sur 17 Sur 0 1016.3 -1.5 65
2017-10-09 15:00:00 25.4 14 Sur 18 Sudoeste 0 1016.9 -1 64
2017-10-09 14:00:00 25.2 11 Sudoeste 18 Sudoeste 0 1017.5 -0.2 64
2017-10-09 13:00:00 24.5 11 Sudoeste 17 Sudoeste 0 1017.8 0.3 66
2017-10-09 12:00:00 24.6 7 Sur 13 Sur 0 1017.9 0.9 64
2017-10-09 11:00:00 24.1 0 Calma 11 Noroeste 0 1017.7 1.2 63
2017-10-09 10:00:00 22.2 0 Calma 18 Norte 0 1017.5 1.5 72
2017-10-09 09:00:00 19.2 8 Norte 13 Norte 0 1017 1.1 75
2017-10-09 08:00:00 18.4 6 Noroeste 15 Noroeste 0 1016.5 0.5 80
2017-10-09 07:00:00 18 7 Noroeste 15 Norte 0 1016 -0.3 81
2017-10-09 06:00:00 18.7 12 Noroeste 18 Noroeste 0 1015.9 -1 77
2017-10-09 05:00:00 18.9 7 Noroeste 17 Noroeste 0 1016 -1 79
2017-10-09 04:00:00 19.9 11 Noroeste 18 Noroeste 0 1016.3 -0.9 74
2017-10-09 03:00:00 19.9 4 Norte 8 Norte 0 1016.9 -0.4 79
2017-10-09 02:00:00 19.5 5 Norte 8 Norte 0 1017 -0.2 79
2017-10-09 01:00:00 20 0 Calma 8 Nordeste 0 1017.2 0.2 78
2017-10-09 00:00:00 20.4 0 Calma 8 Norte 0 1017.3 0.7 77
2017-10-08 23:00:00 21 3 Nordeste 8 Nordeste 0 1017.2 0.9 73
2017-10-08 22:00:00 22 3 Nordeste 11 Nordeste 0 1017 1 71
2017-10-08 21:00:00 22.5 4 Nordeste 8 Nordeste 0 1016.6 1 69
2017-10-08 20:00:00 23.4 4 Sudoeste 11 Sur 0 1016.3 0.5 74
2017-10-08 19:00:00 24.8 7 Sur 21 Sur 0 1016 -0.3 70
2017-10-08 18:00:00 25.4 11 Sur 22 Sur 0 1015.6 -1.5 67
2017-10-08 17:00:00 26.1 14 Sur 22 Sur 0 1015.8 -2 67
2017-10-08 16:00:00 26 16 Sur 24 Sur 0 1016.3 -2 65
2017-10-08 15:00:00 26.6 17 Sur 24 Sur 0 1017.1 -1.2 63
2017-10-08 14:00:00 26.7 14 Sur 24 Sur 0 1017.8 -0.7 61
2017-10-08 13:00:00 27.3 14 Sur 24 Sudeste 0 1018.3 -0.2 55
2017-10-08 12:00:00 26.4 9 Este 22 Este 0 1018.3 0.2 51
2017-10-08 11:00:00 24.6 5 Noroeste 24 Noroeste 0 1018.5 0.7 56
2017-10-08 10:00:00 21.8 17 Noroeste 33 Noroeste 0 1018.5 0.6 65
2017-10-08 09:00:00 19.8 19 Noroeste 35 Noroeste 0 1018.1 0.5 72
2017-10-08 08:00:00 19.9 19 Noroeste 30 Noroeste 0 1017.8 0.2 71
2017-10-08 07:00:00 19.9 16 Noroeste 24 Noroeste 0 1017.9 -0.2 73
2017-10-08 06:00:00 20.2 14 Norte 24 Noroeste 0 1017.6 -0.9 73
2017-10-08 05:00:00 20.7 14 Norte 21 Noroeste 0 1017.6 -1.1 73
2017-10-08 04:00:00 20.8 9 Norte 18 Noroeste 0 1018.1 -0.5 73
2017-10-08 03:00:00 21.4 10 Norte 15 Norte 0 1018.5 -0.1 70
2017-10-08 02:00:00 21.7 7 Norte 21 Nordeste 0 1018.7 0.4 69
2017-10-08 01:00:00 22.5 7 Nordeste 32 Nordeste 0 1018.6 0.8 66
2017-10-08 00:00:00 22.3 12 Este 32 Este 0 1018.6 1.3 67
2017-10-07 23:00:00 22.6 13 Nordeste 26 Este 0 1018.3 1.7 64
2017-10-07 22:00:00 22.2 15 Este 21 Este 0 1017.8 1.6 69
2017-10-07 21:00:00 23.2 12 Este 32 Nordeste 0 1017.3 1.2 63
2017-10-07 20:00:00 24.4 24 Nordeste 45 Nordeste 0 1016.6 0.4 55
2017-10-07 19:00:00 25.8 33 Nordeste 42 Nordeste 0 1016.2 -0.1 52
2017-10-07 18:00:00 27 32 Este 46 Este 0 1016.1 -0.8 50
2017-10-07 17:00:00 28.3 30 Este 42 Este 0 1016.2 -1.3 47
2017-10-07 16:00:00 28.6 30 Este 48 Este 0 1016.3 -1.5 43
2017-10-07 15:00:00 28.8 31 Este 50 Este 0 1016.9 -1 42
2017-10-07 14:00:00 27.8 30 Este 45 Este 0 1017.5 0 52
2017-10-07 13:00:00 26.9 27 Este 39 Este 0 1017.8 0.7 56
2017-10-07 12:00:00 26.9 31 Este 45 Este 0 1017.9 1.4 55
2017-10-07 11:00:00 25.8 27 Nordeste 42 Nordeste 0 1017.5 1.4 56
2017-10-07 10:00:00 22.6 11 Noroeste 22 Noroeste 0 1017.1 1.4 69
2017-10-07 09:00:00 20.2 10 Norte 18 Norte 0 1016.5 1.1 78
2017-10-07 08:00:00 18.8 3 Este 18 Norte 0 1016.1 1 84
2017-10-07 07:00:00 19.3 9 Norte 15 Norte 0 1015.7 0.2 84
2017-10-07 06:00:00 19.6 8 Norte 15 Norte 0 1015.4 -0.3 83
2017-10-07 05:00:00 19.8 6 Norte 13 Norte 0 1015.1 -0.5 83
2017-10-07 04:00:00 20 4 Norte 17 Nordeste 0 1015.5 -0.1 84
2017-10-07 03:00:00 20.8 7 Nordeste 13 Nordeste 0 1015.7 0.2 84
2017-10-07 02:00:00 20.6 8 Nordeste 15 Nordeste 0 1015.6 0.6 82
2017-10-07 01:00:00 20.7 3 Nordeste 11 Norte 0 1015.6 1.1 88
2017-10-07 00:00:00 20.6 6 Nordeste 13 Nordeste 0 1015.5 1.5 88
2017-10-06 23:00:00 21.1 6 Nordeste 13 Nordeste 0 1015 -- 86
2017-10-06 22:00:00 21.8 0 Calma 5 Este 0 1014.5 1 85
2017-10-06 21:00:00 22.1 2 Sur -- -- -- 1014 0.3 86
2017-10-06 20:00:00 -- -- -- -- -- -- -- -- --
2017-10-06 19:00:00 23.7 9 Sur 21 Sudoeste 0 1013.5 -0.8 78
2017-10-06 18:00:00 24.4 15 Sur 24 Sur 0 1013.7 -1 77
2017-10-06 17:00:00 24.8 17 Sur 28 Sudoeste 0 1014 -1.4 74
2017-10-06 16:00:00 24.9 19 Sur 32 Sur 0 1014.3 -1.8 75
2017-10-06 15:00:00 25.1 22 Sur 30 Sudoeste 0 1014.7 -1.8 74
2017-10-06 14:00:00 25 20 Sudoeste 28 Sudoeste 0 1015.4 -1.1 70
2017-10-06 13:00:00 24.5 15 Sur 21 Sudoeste 0 1016.1 0 74
2017-10-06 12:00:00 24.2 13 Sur 18 Sudoeste 0 1016.5 0.6 76
2017-10-06 11:00:00 23 12 Sudoeste 18 Sudoeste 0 1016.5 0.9 79
2017-10-06 10:00:00 22.1 5 Oeste 11 Oeste 0 1016.1 0.4 79
2017-10-06 09:00:00 19.3 3 Noroeste 11 Noroeste 0 1015.9 0.3 87
2017-10-06 08:00:00 19.5 5 Norte 13 Noroeste 0 1015.6 -0.3 86
2017-10-06 07:00:00 19.5 6 Noroeste 11 Noroeste 0 1015.7 -0.6 87
2017-10-06 06:00:00 21.1 4 Oeste 15 Oeste 0 1015.6 -1.1 88
2017-10-06 05:00:00 20.8 6 Oeste 18 Sudoeste 0 1015.9 -1.1 90
2017-10-06 04:00:00 21.1 13 Oeste 18 Oeste 0 1016.3 -1 91
2017-10-06 03:00:00 19.7 0 Calma 13 Noroeste 0 1016.7 -0.8 73
2017-10-06 02:00:00 20.2 8 Noroeste 13 Noroeste 0 1017 -0.5 72
2017-10-06 01:00:00 20.1 0 Calma 4 Sudoeste 0 1017.3 0.1 78
2017-10-06 00:00:00 20.6 2 Sudoeste 5 Oeste 0 1017.5 0.4 79
2017-10-05 23:00:00 21.3 3 Noroeste 5 Noroeste 0 1017.5 0.3 80
2017-10-05 22:00:00 22.5 3 Norte 5 Norte 0 1017.2 0.1 77
2017-10-05 21:00:00 23.1 0 Calma 5 Oeste 0 1017.1 -0.1 75
2017-10-05 20:00:00 23.6 3 Oeste 11 Oeste 0 1017.2 -0.2 73
2017-10-05 19:00:00 24.9 10 Sur 17 Sur 0 1017.1 -0.4 74
2017-10-05 18:00:00 25.9 12 Sur 21 Sur 0 1017.2 -1 70
2017-10-05 17:00:00 26.6 19 Sur 26 Sur 0 1017.4 -1.6 66
2017-10-05 16:00:00 28.6 19 Sudeste 30 Sudeste 0 1017.5 -2.2 51
2017-10-05 15:00:00 29.1 22 Sudeste 33 Sudeste 0 1018.2 -1.7 48
2017-10-05 14:00:00 29.6 20 Este 39 Este 0 1019 -1.3 41
2017-10-05 13:00:00 28.7 24 Este 39 Este 0 1019.7 -0.7 45
2017-10-05 12:00:00 27.6 24 Este 35 Este 0 1019.9 0 49
2017-10-05 11:00:00 26 27 Este 35 Este 0 1020.3 0.3 56
2017-10-05 10:00:00 23.3 3 Norte 30 Noroeste 0 1020.4 0.5 59
2017-10-05 09:00:00 21 10 Norte 28 Noroeste 0 1019.9 0.3 66
2017-10-05 08:00:00 20 18 Norte 28 Norte 0 1020 0.3 69
2017-10-05 07:00:00 20.1 13 Norte 24 Noroeste 0 1019.9 -0.3 70
2017-10-05 06:00:00 20.1 17 Norte 26 Noroeste 0 1019.6 -0.9 72
2017-10-05 05:00:00 19.7 10 Norte 17 Norte 0 1019.7 -1 77
2017-10-05 04:00:00 20.4 5 Norte 13 Norte 0 1020.2 -0.7 75
2017-10-05 03:00:00 20.5 4 Nordeste 15 Norte 0 1020.5 -0.6 74
2017-10-05 02:00:00 21.5 5 Norte 13 Norte 0 1020.7 -0.7 73
2017-10-05 01:00:00 21.7 3 Nordeste 11 Nordeste 0 1020.9 -0.5 72
2017-10-05 00:00:00 21.5 8 Norte 15 Nordeste 0 1021.1 0.2 71
2017-10-04 23:00:00 22 6 Nordeste 18 Nordeste 0 1021.4 1 68
2017-10-04 22:00:00 22.6 13 Este 28 Nordeste 0 1021.4 1.6 75
2017-10-04 21:00:00 23.3 17 Nordeste 28 Este 0 1020.9 1.8 74
2017-10-04 20:00:00 24.5 19 Este 33 Este 0 1020.4 0.9 68
2017-10-04 19:00:00 26.2 26 Este 39 Este 0 1019.8 -0.2 63
2017-10-04 18:00:00 28 30 Este 41 Este 0 1019.1 -1.1 52
2017-10-04 17:00:00 28.9 27 Este 42 Este 0 1019.5 -1 45
2017-10-04 16:00:00 29 27 Este 39 Este 0 1020 -1 49
2017-10-04 15:00:00 28.6 24 Este 39 Este 0 1020.2 -1 53
2017-10-04 14:00:00 29 27 Este 42 Este 0 1020.5 -0.4 51
2017-10-04 13:00:00 28.4 26 Este 42 Este 0 1021 0.4 50
2017-10-04 12:00:00 27.5 22 Nordeste 37 Este 0 1021.2 1.3 52
2017-10-04 11:00:00 26.8 22 Este 35 Este 0 1020.9 1.7 54
2017-10-04 10:00:00 24.4 5 Norte 21 Noroeste 0 1020.6 1.6 63
2017-10-04 09:00:00 22.3 4 Norte 17 Noroeste 0 1019.9 0.8 70
2017-10-04 08:00:00 21.1 8 Norte 17 Noroeste 0 1019.2 0.1 74
2017-10-04 07:00:00 21.1 10 Noroeste 15 Noroeste 0 1019 -0.4 75
2017-10-04 06:00:00 22.4 4 Nordeste 11 Nordeste 0 1019.1 -0.6 74
2017-10-04 05:00:00 21.9 5 Norte 15 Norte 0 1019.1 -0.4 75
2017-10-04 04:00:00 22 9 Nordeste 15 Nordeste 0 1019.4 -0.1 79
2017-10-04 03:00:00 21.7 10 Nordeste 15 Nordeste 0 1019.7 0.1 80
2017-10-04 02:00:00 21.7 5 Norte 11 Norte 0 1019.5 0.4 82
2017-10-04 01:00:00 21.2 5 Norte 13 Nordeste 0 1019.5 0.9 82
2017-10-04 00:00:00 21.9 0 Calma 2 Norte 0 1019.6 1.2 79
2017-10-03 23:00:00 21.9 2 Noroeste 13 Noroeste 0 1019.1 1.3 83
2017-10-03 22:00:00 22.4 0 Calma 4 Sudoeste 0 1018.6 1 82
2017-10-03 21:00:00 22.7 0 Calma 5 Noroeste 0 1018.4 1 81
2017-10-03 20:00:00 23.3 4 Sudoeste 15 Sudoeste 0 1017.8 0.2 80
2017-10-03 19:00:00 24.2 11 Sudoeste 22 Sudoeste 0 1017.6 -0.2 78
2017-10-03 18:00:00 25.3 15 Sudoeste 22 Sur 0 1017.4 -0.8 73
2017-10-03 17:00:00 26.2 16 Sur 24 Sur 0 1017.6 -1.3 70
2017-10-03 16:00:00 26.6 18 Sur 26 Sur 0 1017.8 -1.6 68
2017-10-03 15:00:00 26.9 20 Sur 28 Sur 0 1018.2 -1.4 66
2017-10-03 14:00:00 26.6 21 Sur 30 Sur 0 1018.9 -0.8 68
2017-10-03 13:00:00 26.2 15 Sudoeste 21 Sudoeste 0 1019.4 0 64
2017-10-03 12:00:00 26.4 12 Sur 17 Sudoeste 0 1019.6 0.5 58
2017-10-03 11:00:00 25.8 4 Este 22 Norte 0 1019.7 0.9 57
2017-10-03 10:00:00 22.8 16 Noroeste 24 Norte 0 1019.4 0.7 66
2017-10-03 09:00:00 20.8 17 Noroeste 26 Norte 0 1019.1 0.5 73
2017-10-03 08:00:00 20.2 15 Norte 24 Norte 0 1018.8 0.1 76
2017-10-03 07:00:00 20.1 9 Nordeste 21 Noroeste 0 1018.7 -0.5 74
2017-10-03 06:00:00 20.3 8 Nordeste 22 Noroeste 0 1018.6 -0.9 75
2017-10-03 05:00:00 20.9 11 Norte 21 Noroeste 0 1018.7 -0.9 74
2017-10-03 04:00:00 21.5 7 Noroeste 15 Norte 0 1019.2 -0.6 71
2017-10-03 03:00:00 21.4 7 Nordeste 15 Norte 0 1019.5 -0.6 74
2017-10-03 02:00:00 21.6 4 Norte 11 Nordeste 0 1019.6 -0.6 72
2017-10-03 01:00:00 21.4 0 Calma 11 Este 0 1019.8 -0.2 74
2017-10-03 00:00:00 21.2 5 Este 13 Este 0 1020.1 0.3 77
2017-10-02 23:00:00 22.2 9 Este 18 Este 0 1020.2 1 73
2017-10-02 22:00:00 22.8 13 Este 22 Este 0 1020 1.3 71
2017-10-02 21:00:00 23.5 17 Este 35 Este 0 1019.8 1.5 69
2017-10-02 20:00:00 24.3 27 Este 39 Este 0 1019.2 1.1 65
2017-10-02 19:00:00 25.9 24 Este 41 Este 0 1018.7 0.5 58
2017-10-02 18:00:00 27.1 25 Este 45 Este 0 1018.3 -0.2 55
2017-10-02 17:00:00 28.1 31 Este 42 Este 0 1018.1 -1.1 52
2017-10-02 16:00:00 28.7 32 Este 45 Este 0 1018.2 -1.4 47
2017-10-02 15:00:00 28.3 31 Este 48 Este 0 1018.5 -1.4 48
2017-10-02 14:00:00 29.3 25 Este 39 Este 0 1019.2 -0.8 45
2017-10-02 13:00:00 27.6 20 Este 33 Este 0 1019.6 0 49
2017-10-02 12:00:00 28 21 Este 32 Este 0 1019.9 0.6 47
2017-10-02 11:00:00 25.9 4 Sur 13 Sur 0 1020 1.1 60
2017-10-02 10:00:00 23.4 2 Norte 15 Noroeste 0 1019.6 1 66
2017-10-02 09:00:00 20.5 3 Norte 15 Norte 0 1019.3 0.8 80
2017-10-02 08:00:00 20 0 Calma 15 Norte 0 1018.9 0.5 80
2017-10-02 07:00:00 20.8 10 Norte 21 Norte 0 1018.6 -0.1 77
2017-10-02 06:00:00 20.8 8 Norte 18 Norte 0 1018.5 -0.5 77
2017-10-02 05:00:00 21.2 11 Norte 18 Norte 0 1018.4 -0.6 75
2017-10-02 04:00:00 21 5 Noroeste 13 Noroeste 0 1018.7 -0.5 79
2017-10-02 03:00:00 21.8 5 Nordeste 11 Nordeste 0 1019 -0.2 75
2017-10-02 02:00:00 21.2 4 Nordeste 8 Nordeste 0 1019 0.2 76
2017-10-02 01:00:00 22.2 0 Calma 11 Norte 0 1019.2 0.6 70
2017-10-02 00:00:00 22.2 5 Nordeste 24 Nordeste 0 1019.2 1.1 71
2017-10-01 23:00:00 22.4 5 Nordeste 15 Este 0 1018.8 1.3 73
2017-10-01 22:00:00 23.1 6 Este 18 Este 0 1018.6 1.5 73
2017-10-01 21:00:00 22.8 5 Noroeste 8 Noroeste 0 1018.1 1.2 78
2017-10-01 20:00:00 23.4 4 Oeste 17 Sudoeste 0 1017.5 0.5 76
2017-10-01 19:00:00 24 13 Sudoeste 18 Sudoeste 0 1017.1 -0.3 75
2017-10-01 18:00:00 24.4 12 Sudoeste 17 Sudoeste 0 1016.9 -0.6 73
2017-10-01 17:00:00 25 12 Sudoeste 18 Sur 0 1017 -0.9 71
2017-10-01 16:00:00 25.4 14 Sur 24 Sur 0 1017.4 -0.7 67
2017-10-01 15:00:00 26.3 15 Sur 22 Sur 0 1017.5 -0.5 65
2017-10-01 14:00:00 26.5 14 Sur 18 Sur 0 1017.9 -0.1 65
2017-10-01 13:00:00 25.2 12 Sur 22 Este 0 1018.1 0.3 69
2017-10-01 12:00:00 25 6 Sudeste 17 Sur 0 1018 0.6 69
2017-10-01 11:00:00 24.3 6 Este 18 Sudeste 0 1018 1.1 71
2017-10-01 10:00:00 23.5 0 Calma 5 Nordeste 0 1017.8 1.4 69
2017-10-01 09:00:00 20.3 0 Calma 13 Noroeste 0 1017.4 1.1 81
2017-10-01 08:00:00 20.1 6 Norte 15 Norte 0 1016.9 0.9 81
2017-10-01 07:00:00 20.2 6 Norte 13 Nordeste 0 1016.4 0.5 82
2017-10-01 06:00:00 19.9 9 Nordeste 15 Nordeste 0 1016.3 0.2 80
2017-10-01 05:00:00 19.8 6 Nordeste 9 Nordeste 0 1016 -0.1 79
2017-10-01 04:00:00 20.1 4 Norte 8 Norte 0 1015.9 -0.4 78
2017-10-01 03:00:00 20.2 0 Calma -- -- 0 1016.1 -0.1 77
2017-10-01 02:00:00 20.2 0 Calma 5 Norte 0 1016.1 -0.2 77
2017-10-01 01:00:00 20.7 3 Norte 8 Norte 0 1016.3 0.1 76
2017-10-01 00:00:00 20.9 3 Nordeste 5 Nordeste 0 1016.2 0.3 77
2017-09-30 23:00:00 21.8 0 Calma 8 Sudoeste 0 1016.3 0.8 74
2017-09-30 22:00:00 22.2 5 Sudoeste 17 Sudoeste 0 1016.2 0.6 73
2017-09-30 21:00:00 22.6 10 Sudoeste 17 Sudoeste 0 1015.9 0.4 74
2017-09-30 20:00:00 22.8 12 Sudoeste 15 Sudoeste 0 1015.5 -0.5 73
2017-09-30 19:00:00 23.5 12 Sudoeste 17 Sudoeste 0 1015.6 -0.7 69
2017-09-30 18:00:00 24.2 11 Sur 17 Sudoeste 0 1015.5 -1.4 67
2017-09-30 17:00:00 24.5 12 Sur 17 Sur 0 1016 -1.4 66
2017-09-30 16:00:00 25.5 13 Sur 18 Sur 0 1016.3 -1.9 63
2017-09-30 15:00:00 25.7 14 Sur 21 Sur 0 1016.9 -1.7 63
2017-09-30 14:00:00 25.7 14 Sur 21 Sur 0 1017.4 -1.2 62
2017-09-30 13:00:00 25.3 12 Sur 17 Sur 0 1018.2 0 62
2017-09-30 12:00:00 25.1 10 Sur 15 Sur 0 1018.6 0.4 62
2017-09-30 11:00:00 24.9 5 Sudeste 17 Oeste 0 1018.6 0.8 63
2017-09-30 10:00:00 22.3 12 Noroeste 26 Noroeste 0 1018.2 0.1 66
2017-09-30 09:00:00 20 14 Noroeste 22 Noroeste 0 1018.2 0.1 74
2017-09-30 08:00:00 18.8 12 Noroeste 17 Noroeste 0 1017.8 -0.4 79
2017-09-30 07:00:00 19.4 8 Noroeste 15 Norte 0 1018.1 -0.2 79
2017-09-30 06:00:00 20.1 11 Noroeste 18 Noroeste 0 1018.1 -0.3 77
2017-09-30 05:00:00 20 9 Noroeste 15 Noroeste 0 1018.2 -0.6 77
2017-09-30 04:00:00 19.9 8 Norte 13 Norte 0 1018.3 -0.7 79
2017-09-30 03:00:00 20.2 7 Norte 11 Norte 0 1018.4 -0.5 77
2017-09-30 02:00:00 20.5 4 Nordeste 8 Nordeste 0 1018.8 -0.3 74
2017-09-30 01:00:00 20.4 6 Nordeste 8 Nordeste 0 1019 0 75
2017-09-30 00:00:00 21.5 5 Nordeste 11 Nordeste 0 1018.9 0.4 72
2017-09-29 23:00:00 22 4 Nordeste 21 Este 0 1019.1 1.2 71
2017-09-29 22:00:00 22.4 10 Nordeste 17 Nordeste 0 1019 1.3 70
2017-09-29 21:00:00 23.1 9 Este 18 Este 0 1018.5 0.9 67
2017-09-29 20:00:00 23.9 11 Sudeste 21 Sudeste 0 1017.9 0.2 65
2017-09-29 19:00:00 25.4 16 Sudeste 30 Sudeste 0 1017.7 -0.3 60
2017-09-29 18:00:00 26.4 17 Sudeste 37 Este 0 1017.6 -0.7 56
2017-09-29 17:00:00 28 17 Este 35 Este 0 1017.7 -1.2 49
2017-09-29 16:00:00 27.6 18 Sudeste 39 Este 0 1018 -1.6 52
2017-09-29 15:00:00 28.6 20 Este 33 Este 0 1018.3 -1.9 46
2017-09-29 14:00:00 28.4 18 Este 33 Este 0 1018.9 -1.4 44
2017-09-29 13:00:00 28.2 22 Este 35 Este 0 1019.6 -0.3 45
2017-09-29 12:00:00 27.1 19 Este 39 Nordeste 0 1020.2 0.7 49
2017-09-29 11:00:00 25.9 18 Este 26 Este 0 1020.3 1.4 51
2017-09-29 10:00:00 22.9 5 Norte 18 Noroeste 0 1019.9 1.6 57
2017-09-29 09:00:00 20.5 8 Norte 15 Noroeste 0 1019.5 1.2 67
2017-09-29 08:00:00 19.8 7 Norte 13 Nordeste 0 1018.9 0.5 70
2017-09-29 07:00:00 20.5 10 Norte 18 Norte 0 1018.3 -0.7 70
2017-09-29 06:00:00 20 8 Nordeste 21 Noroeste 0 1018.3 -1.5 72
2017-09-29 05:00:00 20.9 10 Norte 22 Noroeste 0 1018.4 -2 72
2017-09-29 04:00:00 21.1 13 Norte 18 Norte 0 1019 -1.7 69
2017-09-29 03:00:00 21.3 8 Norte 13 Norte 0 1019.8 -1.1 66
2017-09-29 02:00:00 22.1 8 Norte 15 Nordeste 0 1020.4 0.2 66
2017-09-29 01:00:00 22.2 11 Nordeste 24 Este 0 1020.7 1.2 71
2017-09-29 00:00:00 22.7 19 Este 32 Este 0 1020.9 1.7 72
2017-09-28 23:00:00 23.4 18 Este 33 Nordeste 0 1020.2 1.6 64
2017-09-28 22:00:00 23.9 23 Nordeste 37 Este 0 1019.5 1.2 62
2017-09-28 21:00:00 23.9 20 Nordeste 35 Este 0 1019.2 1.1 63
2017-09-28 20:00:00 24.5 27 Este 46 Este 0 1018.6 0.3 58
2017-09-28 19:00:00 26 33 Este 52 Este 0 1018.3 -0.6 54
2017-09-28 18:00:00 27.5 37 Este 52 Este 0 1018.1 -1.1 51
2017-09-28 17:00:00 27.8 33 Este 48 Este 0 1018.3 -1.2 49
2017-09-28 16:00:00 28.5 29 Este 48 Este 0 1018.9 -1.1 48
2017-09-28 15:00:00 29.4 28 Este 46 Este 0 1019.2 -1.1 42
2017-09-28 14:00:00 28.3 30 Este 42 Este 0 1019.5 -0.7 47
2017-09-28 13:00:00 27.8 27 Este 42 Este 0 1020 -0.1 48
2017-09-28 12:00:00 27.2 31 Este 42 Este 0 1020.3 0.7 50
2017-09-28 11:00:00 25.2 25 Nordeste 39 Nordeste 0 1020.2 1.1 55
2017-09-28 10:00:00 24.1 15 Nordeste 30 Nordeste 0 1020.1 1.2 60
2017-09-28 09:00:00 23.1 5 Este 17 Norte 0 1019.6 0.6 66
2017-09-28 08:00:00 22.9 7 Norte 18 Norte 0 1019.1 0.4 68
2017-09-28 07:00:00 22.6 9 Norte 18 Nordeste 0 1018.9 0.1 73
2017-09-28 06:00:00 22.6 6 Nordeste 17 Nordeste 0 1019 -0.1 72
2017-09-28 05:00:00 22.4 8 Nordeste 15 Nordeste 0 1018.7 -0.5 74
2017-09-28 04:00:00 22.4 5 Nordeste 11 Norte 0 1018.8 -0.4 75
2017-09-28 03:00:00 23 4 Nordeste 18 Este 0 1019.1 0 73
2017-09-28 02:00:00 23.6 8 Nordeste 18 Nordeste 0 1019.2 0.1 73
2017-09-28 01:00:00 23.6 14 Nordeste 26 Este 0 1019.2 0.4 75
2017-09-28 00:00:00 23.7 18 Este 28 Este 0 1019.1 0.9 76
2017-09-27 23:00:00 23.9 17 Este 32 Este 0 1019.1 1.8 76
2017-09-27 22:00:00 24.2 24 Este 35 Este 0 1018.8 2 75
2017-09-27 21:00:00 24.7 23 Este 39 Este 0 1018.2 1.4 71
2017-09-27 20:00:00 24.9 30 Este 39 Este 0 1017.3 0.4 67
2017-09-27 19:00:00 25.8 27 Este 41 Este 0 1016.8 -0.5 62
2017-09-27 18:00:00 26.7 24 Este 37 Este 0 1016.8 -0.5 60
2017-09-27 17:00:00 27.9 21 Este 33 Este 0 1016.9 -0.5 57
2017-09-27 16:00:00 28.8 24 Sudeste 33 Sudeste 0 1017.3 -0.5 55
2017-09-27 15:00:00 29.7 22 Sudeste 37 Este 0 1017.3 -1.1 49
2017-09-27 14:00:00 29.7 19 Este 39 Este 0 1017.4 -1.2 48
2017-09-27 13:00:00 29.2 22 Este 41 Norte 0 1017.8 -0.7 49
2017-09-27 12:00:00 28.1 19 Este 28 Este 0 1018.4 0.1 53
2017-09-27 11:00:00 27 5 Este 21 Norte 0 1018.6 0.7 57
2017-09-27 10:00:00 24.1 8 Noroeste 18 Noroeste 0 1018.5 1.3 66
2017-09-27 09:00:00 23 11 Norte 22 Norte 0 1018.3 1 71
2017-09-27 08:00:00 22 12 Norte 18 Norte 0 1017.9 0.6 76
2017-09-27 07:00:00 22 13 Norte 21 Norte 0 1017.2 0.1 77
2017-09-27 06:00:00 21.9 5 Norte 13 Norte 0 1017.3 -0.2 77
2017-09-27 05:00:00 21.6 6 Norte 15 Norte 0 1017.3 -0.1 77
2017-09-27 04:00:00 22.2 5 Norte 11 Norte 0 1017.1 -0.2 76
2017-09-27 03:00:00 23.3 5 Norte 22 Norte 0 1017.5 0.2 71
2017-09-27 02:00:00 23.2 8 Nordeste 18 Nordeste 0 1017.4 0.2 80
2017-09-27 01:00:00 22.2 7 Nordeste 17 Este 0 1017.3 0.9 77
2017-09-27 00:00:00 22.5 8 Este 22 Este 0 1017.3 1.2 70
2017-09-26 23:00:00 22.7 12 Nordeste 18 Nordeste 0 1017.2 1.6 72
2017-09-26 22:00:00 23.7 4 Este 13 Este 0 1016.4 1.5 74
2017-09-26 21:00:00 24.8 4 Este 17 Este 0 1016.1 2 68
2017-09-26 20:00:00 26 10 Este 24 Este 0 1015.6 1.6 60
2017-09-26 19:00:00 27.4 18 Este 30 Este 0 1014.9 0.8 54
2017-09-26 18:00:00 29 22 Este 37 Este 0 1014.1 -0.3 48
2017-09-26 17:00:00 29.4 23 Este 35 Este 0 1014 -1.1 49
2017-09-26 16:00:00 29.9 24 Este 39 Este 0 1014.1 -1.4 51
2017-09-26 15:00:00 30 26 Este 41 Este 0 1014.4 -1.2 51
2017-09-26 14:00:00 29.4 29 Este 42 Nordeste 0 1015.1 -0.3 52
2017-09-26 13:00:00 29 33 Este 48 Este 0 1015.5 0.1 52
2017-09-26 12:00:00 28.5 33 Este 46 Este 0 1015.6 0.4 56
2017-09-26 11:00:00 27.3 32 Nordeste 45 Este 0 1015.4 0.6 58
2017-09-26 10:00:00 25 6 Norte 18 Norte 0 1015.4 1.1 56
2017-09-26 09:00:00 20.2 6 Norte 15 Norte 0 1015.2 1 83
2017-09-26 08:00:00 19.2 3 Norte 11 Nordeste 0 1014.8 0.6 91
2017-09-26 07:00:00 20.3 7 Nordeste 15 Este 0 1014.3 0 88
2017-09-26 06:00:00 21 4 Este 8 Este 0 1014.2 -0.3 87
2017-09-26 05:00:00 21 0 Calma 15 Oeste 0 1014.2 -0.4 88
2017-09-26 04:00:00 21.2 3 Oeste 15 Oeste 0 1014.3 -0.5 88
2017-09-26 03:00:00 21.2 7 Sudoeste 13 Oeste 0 1014.5 -0.6 90
2017-09-26 02:00:00 20.9 5 Oeste 13 Oeste 0 1014.6 -0.7 93
2017-09-26 01:00:00 20.6 4 Oeste 8 Oeste 0 1014.8 -0.5 91
2017-09-26 00:00:00 21 0 Calma 4 Norte 0 1015.1 0.1 89
2017-09-25 23:00:00 21.4 4 Oeste 18 Oeste 0 1015.3 0.6 89
2017-09-25 22:00:00 21.9 14 Sudoeste 21 Sudoeste 0 1015.3 0.6 88
2017-09-25 21:00:00 22.1 14 Sudoeste 22 Sudoeste 0 1015 0 87
2017-09-25 20:00:00 22.7 11 Sur 17 Sur 0 1014.7 -0.8 85
2017-09-25 19:00:00 23.8 9 Sur 17 Sur 0 1014.7 -1.2 80
2017-09-25 18:00:00 24.4 13 Sur 26 Sur 0 1015 -1.4 77
2017-09-25 17:00:00 24.6 21 Sudoeste 28 Sudoeste 0 1015.5 -1.3 75
2017-09-25 16:00:00 24.4 21 Sudoeste 33 Sudoeste 0 1015.9 -1.2 75
2017-09-25 15:00:00 24.3 27 Sudoeste 37 Sudoeste 0 1016.4 -0.8 74
2017-09-25 14:00:00 24.3 27 Sudoeste 35 Sudoeste 0 1016.8 -0.6 75
2017-09-25 13:00:00 24.5 24 Sudoeste 33 Sudoeste 0 1017.1 -0.3 75
2017-09-25 12:00:00 24.4 14 Sudoeste 22 Sudoeste 0 1017.2 0.4 76
2017-09-25 11:00:00 23.3 14 Sudoeste 18 Sudoeste 0 1017.4 1 79
2017-09-25 10:00:00 22.2 3 Sudoeste 15 Noroeste 0 1017.4 1.1 74
2017-09-25 09:00:00 19.3 5 Noroeste 17 Norte 0 1016.8 0.3 68
2017-09-25 08:00:00 17.3 0 Calma 11 Noroeste 0 1016.4 -0.3 82
2017-09-25 07:00:00 18.6 8 Norte 11 Norte 0 1016.3 -0.5 91
2017-09-25 06:00:00 18.8 5 Norte 8 Norte 0 1016.5 -0.8 92
2017-09-25 05:00:00 19 5 Norte 11 Nordeste 0 1016.7 -0.9 91
2017-09-25 04:00:00 19.7 8 Norte 13 Norte 0 1016.8 -1 92
2017-09-25 03:00:00 20.1 0 Calma -- -- 0 1017.3 -0.6 90
2017-09-25 02:00:00 20.4 0 Calma -- -- 0 1017.6 -0.4 88
2017-09-25 01:00:00 20.6 3 Nordeste 5 Nordeste 0 1017.8 0 88
2017-09-25 00:00:00 21.2 0 Calma 4 Sur 0 1017.9 0.6 87
2017-09-24 23:00:00 22.3 3 Sudoeste 5 Sudoeste 0 1018 0.9 89
2017-09-24 22:00:00 22.6 5 Sudoeste 8 Sudoeste 0 1017.8 0.4 85
2017-09-24 21:00:00 23 4 Sudoeste 8 Sudoeste 0 1017.3 -0.5 84
2017-09-24 20:00:00 23.6 4 Sudoeste 9 Sudoeste 0 1017.1 -0.9 83
2017-09-24 19:00:00 25.1 5 Sur 15 Sur 0 1017.4 -0.5 77
2017-09-24 18:00:00 25.5 10 Sur 18 Sur 0 1017.8 -0.3 76
2017-09-24 17:00:00 26.4 14 Sur 24 Sur 0 1018 -0.5 72
2017-09-24 16:00:00 26.3 19 Sur 26 Sur 0 1017.9 -1 71
2017-09-24 15:00:00 26.7 17 Sur 24 Sur 0 1018.1 -0.7 68
2017-09-24 14:00:00 26.8 13 Sur 21 Sur 0 1018.5 -0.3 66
2017-09-24 13:00:00 26.3 17 Sur 24 Sur 0 1018.9 0.3 67
2017-09-24 12:00:00 27.6 10 Sur 15 Sur 0 1018.8 0.5 52
2017-09-24 11:00:00 26.2 8 Noroeste 24 Noroeste 0 1018.8 0.8 52
2017-09-24 10:00:00 22.6 18 Noroeste 33 Noroeste 0 1018.6 0.9 60
2017-09-24 09:00:00 20.8 19 Noroeste 28 Noroeste 0 1018.3 0.8 69
2017-09-24 08:00:00 20.2 11 Norte 21 Norte 0 1018 0.4 70
2017-09-24 07:00:00 20.1 13 Norte 24 Noroeste 0 1017.7 -0.3 74
2017-09-24 06:00:00 20.4 15 Noroeste 21 Noroeste 0 1017.5 -0.8 74
2017-09-24 05:00:00 20.5 14 Norte 21 Noroeste 0 1017.6 -0.9 75
2017-09-24 04:00:00 20.2 5 Noroeste 15 Norte 0 1018 -0.6 78
2017-09-24 03:00:00 20.9 9 Norte 17 Norte 0 1018.3 -0.3 76
2017-09-24 02:00:00 21.7 5 Norte 15 Norte 0 1018.5 0.2 73
2017-09-24 01:00:00 22 0 Calma 8 Nordeste 0 1018.6 1 72
2017-09-24 00:00:00 22.4 6 Nordeste 15 Este 0 1018.6 1.7 68
2017-09-23 23:00:00 22.7 14 Este 17 Este 0 1018.3 2.1 72
2017-09-23 22:00:00 23.3 15 Este 30 Este 0 1017.6 2 70
2017-09-23 21:00:00 24 12 Este 22 Este 0 1016.9 1.7 67
2017-09-23 20:00:00 25 14 Este 28 Este 0 1016.2 1 64
2017-09-23 19:00:00 26.7 22 Este 35 Este 0 1015.6 0.4 55
2017-09-23 18:00:00 27.9 23 Este 37 Este 0 1015.2 -0.6 50
2017-09-23 17:00:00 29.1 24 Este 41 Este 0 1015.2 -1.3 46
2017-09-23 16:00:00 29.4 27 Este 42 Este 0 1015.2 -1.6 43
2017-09-23 15:00:00 29.5 25 Este 37 Este 0 1015.8 -1.3 42
2017-09-23 14:00:00 29.4 22 Este 41 Este 0 1016.5 -0.7 42
2017-09-23 13:00:00 28 25 Este 37 Este 0 1016.8 -0.1 46
2017-09-23 12:00:00 27.4 21 Nordeste 33 Nordeste 0 1017.1 0.3 48
2017-09-23 11:00:00 26 23 Nordeste 33 Nordeste 0 1017.2 0.6 49
2017-09-23 10:00:00 22.9 15 Noroeste 28 Norte 0 1016.9 1.1 59
2017-09-23 09:00:00 21.8 12 Norte 18 Norte 0 1016.8 1.6 63
2017-09-23 08:00:00 20.7 8 Norte 15 Este 0 1016.6 1.8 70
2017-09-23 07:00:00 20.1 4 Este 11 Este 0 1015.8 0.9 71
2017-09-23 06:00:00 21.8 5 Sudoeste 8 Sudoeste 0 1015.2 -0.4 66
2017-09-23 05:00:00 22.1 5 Sudoeste 15 Sudoeste 0 1014.8 -1.4 66
2017-09-23 04:00:00 22.7 2 Norte 26 Este 0 1014.9 -1.4 62
2017-09-23 03:00:00 23.6 15 Nordeste 33 Nordeste 0 1015.6 -0.6 59
2017-09-23 02:00:00 23.9 26 Nordeste 41 Nordeste 0 1016.2 0 58
2017-09-23 01:00:00 23.9 26 Nordeste 39 Nordeste 0 1016.3 0.6 59
2017-09-23 00:00:00 23.7 28 Nordeste 37 Nordeste 0 1016.2 1.3 65
2017-09-22 23:00:00 23.9 28 Este 39 Este 0 1016.2 2.2 64
2017-09-22 22:00:00 23.9 24 Este 41 Este 0 1015.7 2 68
2017-09-22 21:00:00 24.4 28 Nordeste 52 Este 0 1014.9 1.3 65
2017-09-22 20:00:00 25 38 Este 54 Nordeste 0 1014 0.5 64
2017-09-22 19:00:00 26.1 36 Este 54 Este 0 1013.7 0 60
2017-09-22 18:00:00 27.5 38 Este 52 Este 0 1013.6 -0.7 54
2017-09-22 17:00:00 28.1 34 Este 52 Este 0 1013.5 -1.3 52
2017-09-22 16:00:00 29.5 31 Este 48 Este 0 1013.7 -1.6 47
2017-09-22 15:00:00 29.3 27 Este 42 Este 0 1014.3 -1.2 47
2017-09-22 14:00:00 29.3 27 Este 42 Este 0 1014.8 -0.4 47
2017-09-22 13:00:00 28.9 24 Este 39 Este 0 1015.3 0.3 47
2017-09-22 12:00:00 27.8 27 Este 41 Este 0 1015.5 0.7 49
2017-09-22 11:00:00 26.4 5 Este 22 Este 0 1015.2 1 47
2017-09-22 10:00:00 22.9 3 Norte 13 Norte 0 1015 1.7 53
2017-09-22 09:00:00 21.9 6 Este 13 Este 0 1014.8 1.6 68
2017-09-22 08:00:00 21.3 0 Calma 30 Noroeste 0 1014.2 0.7 61
2017-09-22 07:00:00 21.7 14 Norte 30 Norte 0 1013.3 -0.5 57
2017-09-22 06:00:00 21.5 12 Norte 17 Norte 0 1013.2 -0.7 60
2017-09-22 05:00:00 21.2 4 Norte 18 Noroeste 0 1013.5 -0.8 64
2017-09-22 04:00:00 21.9 13 Norte 24 Norte 0 1013.8 -0.7 63
2017-09-22 03:00:00 21.4 11 Noroeste 18 Norte 0 1013.9 -0.5 69
2017-09-22 02:00:00 22 6 Norte 11 Norte 0 1014.3 0.3 74
2017-09-22 01:00:00 21.2 7 Norte 11 Nordeste 0 1014.5 0.8 74
2017-09-22 00:00:00 22 6 Nordeste 9 Nordeste 0 1014.4 1.3 78
2017-09-21 23:00:00 22.5 3 Este 5 Este 0 1014 1.4 70
2017-09-21 22:00:00 23.4 0 Calma 2 Sudoeste 0 1013.7 1.4 68
2017-09-21 21:00:00 23.7 0 Calma 8 Oeste 0 1013.1 0.8 66
2017-09-21 20:00:00 24.5 6 Oeste 21 Oeste 0 1012.6 0.5 65
2017-09-21 19:00:00 25.3 15 Oeste 22 Sudoeste 0 1012.3 -0.1 66
2017-09-21 18:00:00 27 15 Sudoeste 24 Sur 0 1012.3 -0.7 60
2017-09-21 17:00:00 29.1 16 Sudoeste 22 Sudoeste 0 1012.1 -1.4 42
2017-09-21 16:00:00 28.8 16 Sudoeste 24 Sudoeste 0 1012.4 -1.4 46
2017-09-21 15:00:00 27.8 17 Sudoeste 26 Sudoeste 0 1013 -1.1 56
2017-09-21 14:00:00 27.2 17 Sudoeste 22 Oeste 0 1013.5 -0.8 56
2017-09-21 13:00:00 28.1 18 Sur 28 Este 0 1013.8 -0.5 48
2017-09-21 12:00:00 29.5 5 Este 15 Este 0 1014.1 0.2 30
2017-09-21 11:00:00 26.5 10 Noroeste 26 Noroeste 0 1014.3 0.6 36
2017-09-21 10:00:00 23.4 18 Noroeste 33 Norte 0 1014.3 0.8 45
2017-09-21 09:00:00 20.3 23 Noroeste 33 Noroeste 0 1013.9 0.3 61
2017-09-21 08:00:00 19.5 24 Noroeste 33 Noroeste 0 1013.7 0.1 66
2017-09-21 07:00:00 20 20 Noroeste 28 Noroeste 0 1013.5 -0.6 66
2017-09-21 06:00:00 19.5 17 Norte 26 Norte 0 1013.6 -1 74
2017-09-21 05:00:00 19.9 16 Norte 22 Noroeste 0 1013.6 -1.3 74
2017-09-21 04:00:00 20.5 14 Norte 18 Norte 0 1014.1 -0.7 70
2017-09-21 03:00:00 21 10 Norte 18 Norte 0 1014.6 -0.5 70
2017-09-21 02:00:00 21.3 0 Calma 13 Nordeste 0 1014.9 -0.2 66
2017-09-21 01:00:00 21.9 9 Nordeste 17 Norte 0 1014.8 -0.1 62
2017-09-21 00:00:00 21.5 0 Calma 13 Este 0 1015.1 0.4 56
2017-09-20 23:00:00 21.9 6 Este 13 Nordeste 0 1015.1 0.5 58
2017-09-20 22:00:00 23.2 9 Nordeste 21 Nordeste 0 1014.9 0.3 67
2017-09-20 21:00:00 23.5 9 Nordeste 15 Nordeste 0 1014.7 -0.2 67
2017-09-20 20:00:00 24.8 5 Sudoeste 8 Sudoeste 0 1014.6 -0.8 65
2017-09-20 19:00:00 25.4 2 Sudoeste 15 Sudoeste 0 1014.6 -1.5 65
2017-09-20 18:00:00 25.7 8 Sudoeste 15 Sudoeste 0 1014.9 -1.9 70
2017-09-20 17:00:00 26.1 11 Sudoeste 18 Sudoeste 0 1015.4 -1.8 70
2017-09-20 16:00:00 26.2 14 Sur 22 Sur 0 1016.1 -1.5 72
2017-09-20 15:00:00 26.5 17 Sur 24 Sur 0 1016.8 -1.1 68
2017-09-20 14:00:00 26.4 18 Sur 26 Sur 0 1017.2 -0.7 68
2017-09-20 13:00:00 26.1 16 Sur 24 Sudeste 0 1017.6 -0.1 70
2017-09-20 12:00:00 25.6 15 Sur 21 Sur 0 1017.9 0.3 63
2017-09-20 11:00:00 25.7 12 Este 22 Este 0 1017.9 0.7 57
2017-09-20 10:00:00 24.3 13 Este 21 Este 0 1017.7 0.6 62
2017-09-20 09:00:00 20.2 4 Noroeste 13 Norte 0 1017.6 0.5 57
2017-09-20 08:00:00 19.9 9 Norte 18 Norte 0 1017.2 0.2 59
2017-09-20 07:00:00 19.4 7 Norte 15 Norte 0 1017.1 0 61
2017-09-20 06:00:00 20.2 12 Norte 18 Norte 0 1017.1 -0.2 56
2017-09-20 05:00:00 20.1 6 Norte 21 Norte 0 1017 -0.5 59
2017-09-20 04:00:00 19 0 Calma 11 Este 0 1017.1 -0.9 63
2017-09-20 03:00:00 19.4 0 Calma 8 Norte 0 1017.3 -0.9 68
2017-09-20 02:00:00 19.9 5 Nordeste 13 Noroeste 0 1017.5 -0.7 68
2017-09-20 01:00:00 20.5 4 Norte 8 Norte 0 1018 0 70
2017-09-20 00:00:00 21.2 2 Norte 8 Norte 0 1018.2 0.6 74